»·PEaware :: N335AK KACV-KSAC

N335AK :: KACV-KSAC

FLIGHT INFORMATION

Flight Status: Arrived
Operator: Privately registered:
United States
More flights under this callsign
Pilot: Gabor H. (24209)
Aircraft: Unknown
(EPIC)
More flights by this aircraft type
Origin: KACV Arcata
United States
Destination: KSAC Sacramento Executive
United States
More flights between these airports :: More routes between these airports
Route: HOCUT V27 FOT V185 RBL V23 SAC
File this flight plan on PilotEdge
Remarks:
Altitude:
(Current/Filed)
17,000ft
Speed:
(Current/Filed)
325kts
Departed: 16-Nov-20 05:16 PM
Arrived: 16-Nov-20 06:05 PM
Distance/Time
Traveled:
191nm/0:49
Distance/Time
To Go:
Arrived

Flight Plot

Page will automatically refresh every two minutes.

Flight plan parsing failed; only flown route is shown


Map Options




Map Legend


Flown Route
Filed Route
Departure Airport
Arrival Airport
Navaid (VOR, NDB)
Fix

Horizontal Profiles

Position Reports

Time Latitude Longitude Heading Altitude Ground
Speed
16-Nov-20 17:00 40.972564 -124.106895 331 225ft 0kts
16-Nov-20 17:01 40.972564 -124.106895 331 225ft 0kts
16-Nov-20 17:02 40.972564 -124.106895 331 225ft 0kts
16-Nov-20 17:03 40.972564 -124.106895 331 225ft 0kts
16-Nov-20 17:04 40.972564 -124.106895 331 225ft 0kts
16-Nov-20 17:05 40.972564 -124.106895 331 225ft 0kts
16-Nov-20 17:06 40.972564 -124.106895 331 225ft 0kts
16-Nov-20 17:07 40.971825 -124.105192 154 225ft 18kts
16-Nov-20 17:08 40.970090 -124.104231 71 225ft 0kts
16-Nov-20 17:09 40.970090 -124.104231 71 225ft 0kts
16-Nov-20 17:10 40.970090 -124.104231 71 225ft 0kts
16-Nov-20 17:11 40.970090 -124.104231 71 225ft 0kts
16-Nov-20 17:12 40.970090 -124.104231 71 225ft 0kts
16-Nov-20 17:13 40.970090 -124.104231 71 225ft 0kts
16-Nov-20 17:14 40.971188 -124.103545 333 225ft 18kts
16-Nov-20 17:15 40.999814 -124.132000 279 1651ft 171kts
16-Nov-20 17:16 40.977308 -124.185581 275 4022ft 172kts
16-Nov-20 17:17 40.954899 -124.234874 190 6651ft 219kts
16-Nov-20 17:18 40.896094 -124.235780 184 9888ft 207kts
16-Nov-20 17:19 40.840132 -124.235449 181 12775ft 205kts
16-Nov-20 17:20 40.779914 -124.235102 182 14810ft 224kts
16-Nov-20 17:21 40.717139 -124.234751 182 16813ft 227kts
16-Nov-20 17:22 40.660026 -124.193394 118 16970ft 304kts
16-Nov-20 17:23 40.630143 -124.085653 117 16947ft 319kts
16-Nov-20 17:24 40.599484 -123.975226 117 16946ft 323kts
16-Nov-20 17:25 40.568397 -123.863739 117 16946ft 326kts
16-Nov-20 17:26 40.536869 -123.751247 117 16946ft 328kts
16-Nov-20 17:27 40.505293 -123.639119 117 16946ft 328kts
16-Nov-20 17:28 40.473475 -123.526492 117 16946ft 328kts
16-Nov-20 17:29 40.441641 -123.414308 117 16946ft 328kts
16-Nov-20 17:30 40.409619 -123.301941 117 16903ft 328kts
16-Nov-20 17:31 40.377641 -123.190219 117 16967ft 326kts
16-Nov-20 17:32 40.345621 -123.078862 117 17016ft 327kts
16-Nov-20 17:33 40.313357 -122.967114 116 17016ft 329kts
16-Nov-20 17:34 40.280821 -122.854876 116 17019ft 331kts
16-Nov-20 17:35 40.248001 -122.742147 116 17020ft 332kts
16-Nov-20 17:36 40.214909 -122.629017 116 17022ft 332kts
16-Nov-20 17:37 40.181845 -122.516460 116 17024ft 332kts
16-Nov-20 17:38 40.148561 -122.403648 116 17026ft 332kts
16-Nov-20 17:39 40.115268 -122.291312 116 17023ft 332kts
16-Nov-20 17:40 40.054947 -122.213972 160 17023ft 309kts
16-Nov-20 17:41 39.975533 -122.171554 162 17021ft 308kts
16-Nov-20 17:42 39.896211 -122.130032 162 17013ft 308kts
16-Nov-20 17:43 39.816706 -122.088525 162 17011ft 307kts
16-Nov-20 17:44 39.737382 -122.047216 162 17010ft 307kts
16-Nov-20 17:45 39.658390 -122.006176 162 17010ft 307kts
16-Nov-20 17:46 39.578981 -121.965025 162 17009ft 307kts
16-Nov-20 17:47 39.499964 -121.924177 162 17011ft 307kts
16-Nov-20 17:48 39.420824 -121.883365 162 17036ft 307kts
16-Nov-20 17:49 39.341429 -121.842582 162 17053ft 307kts
16-Nov-20 17:50 39.259372 -121.813303 169 16758ft 312kts
16-Nov-20 17:51 39.175914 -121.786238 168 15176ft 307kts
16-Nov-20 17:52 39.094770 -121.759988 168 13357ft 297kts
16-Nov-20 17:53 39.016076 -121.734614 167 11748ft 290kts
16-Nov-20 17:54 38.939082 -121.709796 165 10113ft 264kts
16-Nov-20 17:55 38.872154 -121.688230 163 8473ft 246kts
16-Nov-20 17:56 38.805578 -121.666901 163 6913ft 247kts
16-Nov-20 17:57 38.739946 -121.643967 143 5235ft 243kts
16-Nov-20 17:58 38.700846 -121.576293 123 3547ft 233kts
16-Nov-20 17:59 38.667253 -121.514565 123 3003ft 189kts
16-Nov-20 18:00 38.632980 -121.469057 141 3014ft 166kts
16-Nov-20 18:01 38.590626 -121.451522 173 2413ft 153kts
16-Nov-20 18:02 38.551855 -121.461870 213 906ft 132kts
16-Nov-20 18:03 38.527744 -121.482099 212 391ft 98kts
16-Nov-20 18:04 38.513773 -121.494230 245 25ft 21kts
16-Nov-20 18:05 38.513591 -121.495108 267 24ft 0kts
16-Nov-20 18:06 38.513591 -121.495108 267 24ft 0kts
16-Nov-20 18:07 38.513591 -121.495108 267 24ft 0kts
16-Nov-20 18:08 38.514025 -121.496969 303 23ft 11kts
16-Nov-20 18:09 38.514952 -121.499568 190 23ft 12kts

Navigation Log

Ident Type
Flight plan parsing failed, navigation log unavailable